createdAt,value
2022-11-17T00:00:18.803Z,21.90
2022-11-17T00:02:47.306Z,25.07
2022-11-17T00:05:15.944Z,20.97
2022-11-17T00:07:45.326Z,21.80
2022-11-17T00:10:14.365Z,22.33
2022-11-17T00:13:00.394Z,21.63
2022-11-17T00:15:30.317Z,22.33
2022-11-17T00:18:16.524Z,22.47
2022-11-17T00:21:02.252Z,21.60
2022-11-17T00:23:47.279Z,22.87
2022-11-17T00:26:17.105Z,22.30
2022-11-17T00:28:45.581Z,23.90
2022-11-17T00:31:33.880Z,23.10
2022-11-17T00:34:06.384Z,20.70
2022-11-17T00:36:40.918Z,23.13
2022-11-17T00:39:10.193Z,22.57
2022-11-17T00:41:38.566Z,24.07
2022-11-17T00:44:07.847Z,24.40
2022-11-17T00:46:38.453Z,25.60
2022-11-17T00:49:07.477Z,22.30
2022-11-17T00:51:36.282Z,22.60
2022-11-17T00:54:05.853Z,21.27
2022-11-17T00:56:35.427Z,22.53
2022-11-17T00:59:04.166Z,22.40
2022-11-17T01:01:32.965Z,21.97
2022-11-17T01:04:07.181Z,22.20
2022-11-17T01:06:37.381Z,23.07
2022-11-17T01:09:07.736Z,22.63
2022-11-17T01:11:36.128Z,21.40
2022-11-17T01:14:04.815Z,22.40
2022-11-17T01:16:34.586Z,21.90
2022-11-17T01:19:05.083Z,20.80
2022-11-17T01:21:33.645Z,20.50
2022-11-17T01:24:02.878Z,21.47
2022-11-17T01:26:33.430Z,18.80
2022-11-17T01:29:02.368Z,23.80
2022-11-17T01:31:32.436Z,20.70
2022-11-17T01:34:01.333Z,19.90
2022-11-17T01:36:53.944Z,15.03
2022-11-17T01:39:23.184Z,17.57
2022-11-17T01:41:51.628Z,21.80
2022-11-17T01:44:56.848Z,21.40
2022-11-17T01:47:29.038Z,19.77
2022-11-17T01:50:00.446Z,18.10
2022-11-17T01:52:32.895Z,17.80
2022-11-17T01:55:01.946Z,19.00
2022-11-17T01:57:33.925Z,22.17
2022-11-17T02:00:05.824Z,21.83
2022-11-17T02:02:34.680Z,20.33
2022-11-17T02:05:07.539Z,19.60
2022-11-17T02:07:38.284Z,20.90
2022-11-17T02:10:07.754Z,21.90
2022-11-17T02:12:37.060Z,21.40
2022-11-17T02:15:06.645Z,20.10
2022-11-17T02:17:37.327Z,19.47
2022-11-17T02:20:08.998Z,17.63
2022-11-17T02:23:06.118Z,16.40
2022-11-17T02:25:47.815Z,12.33
2022-11-17T02:28:19.091Z,13.20
2022-11-17T02:30:58.362Z,17.50
2022-11-17T02:33:34.402Z,18.17
2022-11-17T02:36:06.830Z,18.83
2022-11-17T02:38:42.225Z,15.90
2022-11-17T02:41:14.027Z,18.07
2022-11-17T02:44:05.939Z,18.40
2022-11-17T02:46:42.449Z,18.53
2022-11-17T02:49:18.670Z,19.63
2022-11-17T02:51:47.971Z,19.27
2022-11-17T02:54:16.972Z,19.13
2022-11-17T02:56:45.676Z,19.83
2022-11-17T02:59:18.652Z,18.87
2022-11-17T03:02:15.412Z,20.33
2022-11-17T03:04:48.532Z,17.87
2022-11-17T03:07:29.378Z,19.73
2022-11-17T03:10:04.470Z,20.73
2022-11-17T03:12:37.485Z,19.73
2022-11-17T03:15:14.026Z,23.67
2022-11-17T03:17:48.454Z,20.67
2022-11-17T03:20:21.530Z,21.13
2022-11-17T03:22:52.764Z,20.83
2022-11-17T03:25:23.286Z,20.40
2022-11-17T03:27:56.281Z,19.40
2022-11-17T03:30:26.856Z,21.77
2022-11-17T03:32:58.258Z,20.57
2022-11-17T03:35:29.206Z,20.20
2022-11-17T03:38:02.058Z,19.80
2022-11-17T03:40:32.218Z,17.77
2022-11-17T03:43:03.138Z,18.77
2022-11-17T03:45:35.982Z,18.57
2022-11-17T03:48:09.173Z,18.37
2022-11-17T03:50:41.443Z,16.80
2022-11-17T03:53:10.224Z,12.90
2022-11-17T03:55:43.639Z,12.37
2022-11-17T03:58:16.681Z,13.20
2022-11-17T04:00:47.497Z,11.83
2022-11-17T04:03:17.156Z,14.73
2022-11-17T04:05:45.624Z,16.33
2022-11-17T04:08:13.901Z,14.73
2022-11-17T04:10:56.092Z,15.10
2022-11-17T04:13:51.431Z,15.10
2022-11-17T04:16:21.180Z,14.50
2022-11-17T04:18:50.726Z,14.37
2022-11-17T04:21:20.092Z,14.90
2022-11-17T04:23:48.428Z,16.53
2022-11-17T04:26:34.117Z,14.27
2022-11-17T04:29:02.591Z,16.63
2022-11-17T04:31:32.970Z,14.20
2022-11-17T04:34:03.167Z,14.50
2022-11-17T04:36:33.271Z,16.70
2022-11-17T04:39:01.639Z,15.30
2022-11-17T04:41:48.309Z,18.90
2022-11-17T04:44:18.572Z,17.27
2022-11-17T04:46:48.268Z,16.27
2022-11-17T04:49:18.293Z,17.43
2022-11-17T04:51:46.695Z,15.53
2022-11-17T04:54:17.529Z,17.40
2022-11-17T04:56:46.728Z,22.43
2022-11-17T04:59:15.670Z,19.87
2022-11-17T05:01:44.041Z,22.17
2022-11-17T05:04:15.046Z,21.37
2022-11-17T05:06:44.935Z,21.27
2022-11-17T05:09:15.806Z,19.00
2022-11-17T05:12:02.396Z,20.00
2022-11-17T05:14:31.455Z,19.23
2022-11-17T05:17:11.247Z,19.80
2022-11-17T05:19:44.316Z,19.40
2022-11-17T05:22:31.909Z,19.77
2022-11-17T05:25:00.266Z,17.00
2022-11-17T05:27:28.588Z,19.47
2022-11-17T05:29:57.060Z,20.70
2022-11-17T05:32:26.027Z,20.83
2022-11-17T05:34:56.023Z,19.87
2022-11-17T05:37:24.420Z,19.03
2022-11-17T05:39:52.747Z,19.73
2022-11-17T05:42:21.168Z,20.07
2022-11-17T05:44:49.675Z,22.77
2022-11-17T05:47:18.758Z,22.47
2022-11-17T05:49:47.185Z,24.03
2022-11-17T05:52:16.952Z,20.93
2022-11-17T05:54:45.309Z,22.37
2022-11-17T05:57:16.488Z,22.00
2022-11-17T05:59:48.015Z,20.83
2022-11-17T06:02:18.393Z,22.63
2022-11-17T06:04:47.474Z,23.17
2022-11-17T06:07:18.115Z,22.40
2022-11-17T06:09:47.807Z,20.93
2022-11-17T06:12:16.571Z,21.43
2022-11-17T06:14:45.018Z,22.23
2022-11-17T06:17:22.414Z,22.67
2022-11-17T06:19:53.471Z,21.60
2022-11-17T06:22:23.305Z,21.27
2022-11-17T06:24:51.767Z,19.77
2022-11-17T06:27:20.233Z,20.47
2022-11-17T06:29:49.048Z,20.10
2022-11-17T06:32:18.588Z,22.40
2022-11-17T06:34:53.604Z,20.43
2022-11-17T06:37:25.689Z,21.83
2022-11-17T06:39:54.074Z,20.73
2022-11-17T06:42:43.036Z,23.07
2022-11-17T06:45:12.383Z,22.80
2022-11-17T06:47:41.015Z,19.80
2022-11-17T06:50:10.452Z,21.93
2022-11-17T06:52:40.716Z,21.17
2022-11-17T06:55:10.055Z,21.27
2022-11-17T06:57:39.235Z,22.20
2022-11-17T07:00:09.009Z,19.53
2022-11-17T07:02:37.825Z,21.03
2022-11-17T07:05:06.849Z,19.90
2022-11-17T07:07:35.404Z,20.53
2022-11-17T07:10:05.549Z,19.90
2022-11-17T07:12:34.754Z,21.47
2022-11-17T07:15:03.031Z,18.63
2022-11-17T07:17:31.789Z,19.03
2022-11-17T07:20:00.074Z,20.00
2022-11-17T07:22:28.337Z,18.00
2022-11-17T07:24:56.634Z,18.17
2022-11-17T07:27:26.304Z,19.80
2022-11-17T07:29:54.647Z,20.97
2022-11-17T07:32:22.946Z,18.70
2022-11-17T07:34:51.380Z,17.93
2022-11-17T07:37:19.943Z,19.10
2022-11-17T07:39:48.230Z,21.17
2022-11-17T07:42:16.531Z,18.43
2022-11-17T07:44:55.803Z,19.30
2022-11-17T07:47:24.084Z,18.50
2022-11-17T07:49:52.636Z,18.60
2022-11-17T07:52:20.897Z,19.67
2022-11-17T07:54:49.254Z,16.80
2022-11-17T07:57:17.488Z,17.60
2022-11-17T07:59:45.779Z,18.67
2022-11-17T08:02:15.563Z,16.13
2022-11-17T08:04:43.949Z,17.30
2022-11-17T08:07:12.527Z,16.70
2022-11-17T08:09:40.869Z,17.10
2022-11-17T08:12:09.319Z,17.40
2022-11-17T08:14:37.592Z,17.03
2022-11-17T08:17:06.005Z,18.00
2022-11-17T08:19:35.709Z,19.57
2022-11-17T08:22:03.942Z,17.40
2022-11-17T08:24:33.537Z,16.97
2022-11-17T08:27:02.124Z,15.50
2022-11-17T08:29:30.474Z,15.67
2022-11-17T08:32:00.912Z,16.13
2022-11-17T08:34:29.214Z,17.20
2022-11-17T08:36:58.942Z,15.23
2022-11-17T08:39:28.643Z,17.03
2022-11-17T08:41:56.896Z,15.97
2022-11-17T08:44:25.252Z,15.77
2022-11-17T08:46:53.591Z,16.37
2022-11-17T08:49:21.818Z,14.97
2022-11-17T08:51:50.622Z,13.70
2022-11-17T08:54:20.328Z,16.60
2022-11-17T08:56:48.729Z,17.20
2022-11-17T08:59:17.014Z,15.60
2022-11-17T09:01:45.494Z,16.53
2022-11-17T09:04:14.067Z,14.23
2022-11-17T09:06:42.378Z,16.10
2022-11-17T09:09:10.744Z,16.10
2022-11-17T09:11:40.434Z,15.20
2022-11-17T09:14:09.111Z,15.20
2022-11-17T09:16:37.836Z,14.97
2022-11-17T09:19:06.886Z,15.13
2022-11-17T09:21:35.216Z,15.53
2022-11-17T09:24:03.480Z,14.40
2022-11-17T09:26:31.807Z,15.90
2022-11-17T09:29:04.340Z,16.63
2022-11-17T09:31:33.030Z,15.97
2022-11-17T09:34:05.265Z,16.70
2022-11-17T09:36:35.033Z,17.50
2022-11-17T09:39:03.294Z,16.33
2022-11-17T09:41:35.529Z,16.73
2022-11-17T09:44:17.335Z,17.30
2022-11-17T09:46:56.266Z,15.63
2022-11-17T09:49:34.251Z,15.10
2022-11-17T09:52:07.174Z,17.10
2022-11-17T09:54:42.674Z,16.90
2022-11-17T09:57:21.292Z,16.30
2022-11-17T10:00:03.442Z,18.30
2022-11-17T10:02:33.711Z,17.27
2022-11-17T10:05:02.360Z,18.33
2022-11-17T10:07:32.196Z,18.47
2022-11-17T10:10:02.647Z,17.57
2022-11-17T10:12:36.278Z,18.97
2022-11-17T10:15:22.375Z,17.50
2022-11-17T10:17:51.599Z,17.47
2022-11-17T10:20:19.999Z,17.60
2022-11-17T10:22:49.130Z,18.20
2022-11-17T10:25:37.370Z,17.70
2022-11-17T10:28:07.830Z,18.40
2022-11-17T10:30:37.912Z,17.73
2022-11-17T10:33:06.695Z,17.67
2022-11-17T10:35:36.367Z,19.03
2022-11-17T10:38:07.687Z,19.53
2022-11-17T10:40:48.309Z,17.83
2022-11-17T10:43:24.815Z,18.30
2022-11-17T10:45:56.032Z,19.47
2022-11-17T10:48:28.202Z,20.07
2022-11-17T10:50:58.467Z,19.07
2022-11-17T10:53:31.226Z,18.53
2022-11-17T10:56:03.623Z,16.70
2022-11-17T10:58:34.266Z,17.87
2022-11-17T11:01:06.189Z,18.17
2022-11-17T11:03:36.207Z,17.37
2022-11-17T11:06:07.446Z,18.83
2022-11-17T11:08:48.755Z,17.50
2022-11-17T11:11:36.136Z,17.70
2022-11-17T11:14:13.230Z,15.90
2022-11-17T11:16:47.889Z,15.13
2022-11-17T11:19:18.515Z,16.60
2022-11-17T11:22:20.942Z,17.83
2022-11-17T11:24:53.396Z,16.70
2022-11-17T11:27:45.078Z,18.00
2022-11-17T11:30:15.267Z,16.77
2022-11-17T11:32:56.101Z,16.97
2022-11-17T11:35:40.076Z,16.87
2022-11-17T11:38:24.198Z,16.70
2022-11-17T11:41:04.881Z,16.10
2022-11-17T11:43:37.270Z,18.07
2022-11-17T11:46:11.788Z,15.87
2022-11-17T11:48:42.481Z,17.40
2022-11-17T11:51:14.862Z,17.57
2022-11-17T11:53:47.698Z,16.30
2022-11-17T11:56:19.203Z,16.27
2022-11-17T11:58:57.128Z,16.00
2022-11-17T12:01:25.905Z,14.47
2022-11-17T12:04:01.815Z,14.73
2022-11-17T12:06:43.035Z,15.00
2022-11-17T12:09:26.028Z,14.87
2022-11-17T12:12:01.555Z,15.20
2022-11-17T12:14:31.632Z,14.13
2022-11-17T12:17:12.362Z,15.03
2022-11-17T12:19:51.192Z,15.33
2022-11-17T12:22:39.154Z,13.00
2022-11-17T12:25:17.187Z,14.43
2022-11-17T12:27:47.205Z,13.90
2022-11-17T12:30:56.941Z,13.40
2022-11-17T12:33:25.375Z,15.73
2022-11-17T12:36:30.454Z,15.30
2022-11-17T12:39:00.085Z,13.20
2022-11-17T12:42:01.830Z,12.40
2022-11-17T12:44:50.906Z,14.83
2022-11-17T12:47:20.646Z,13.83
2022-11-17T12:50:00.989Z,14.23
2022-11-17T12:52:34.556Z,14.60
2022-11-17T12:55:07.507Z,13.43
2022-11-17T12:57:36.521Z,12.57
2022-11-17T13:00:10.046Z,12.70
2022-11-17T13:03:00.738Z,12.30
2022-11-17T13:05:30.333Z,13.13
2022-11-17T13:08:22.486Z,12.30
2022-11-17T13:10:51.685Z,10.80
2022-11-17T13:13:22.848Z,11.10
2022-11-17T13:15:52.259Z,10.37
2022-11-17T13:18:31.713Z,9.30
2022-11-17T13:21:00.728Z,11.60
2022-11-17T13:23:31.674Z,9.60
2022-11-17T13:26:10.780Z,10.10
2022-11-17T13:28:39.172Z,10.30
2022-11-17T13:31:08.198Z,9.70
2022-11-17T13:33:40.182Z,9.43
2022-11-17T13:36:17.294Z,11.33
2022-11-17T13:38:52.124Z,11.40
2022-11-17T13:41:21.513Z,9.70
2022-11-17T13:43:50.607Z,11.17
2022-11-17T13:46:19.147Z,11.47
2022-11-17T13:48:48.501Z,10.00
2022-11-17T13:51:19.113Z,11.00
2022-11-17T13:53:50.984Z,10.37
2022-11-17T13:56:24.501Z,10.80
2022-11-17T13:58:53.046Z,11.03
2022-11-17T14:01:25.585Z,10.07
2022-11-17T14:03:54.149Z,11.37
2022-11-17T14:06:22.390Z,10.63
2022-11-17T14:09:06.364Z,10.30
2022-11-17T14:11:34.649Z,9.33
2022-11-17T14:14:02.953Z,10.60
2022-11-17T14:16:36.372Z,10.43
2022-11-17T14:19:07.236Z,11.10
2022-11-17T14:21:35.527Z,10.37
2022-11-17T14:24:08.367Z,11.40
2022-11-17T14:26:42.193Z,11.17
2022-11-17T14:29:12.548Z,10.67
2022-11-17T14:31:40.886Z,9.60
2022-11-17T14:34:09.299Z,11.40
2022-11-17T14:36:38.571Z,10.70
2022-11-17T14:39:14.126Z,10.57
2022-11-17T14:41:42.962Z,10.07
2022-11-17T14:44:11.436Z,10.13
2022-11-17T14:46:39.930Z,10.27
2022-11-17T14:49:08.418Z,9.73
2022-11-17T14:51:37.022Z,9.37
2022-11-17T14:54:05.613Z,10.57
2022-11-17T14:56:35.967Z,11.23
2022-11-17T14:59:04.294Z,9.53
2022-11-17T15:01:38.442Z,9.47
2022-11-17T15:04:27.623Z,10.23
2022-11-17T15:06:57.164Z,12.53
2022-11-17T15:09:25.769Z,11.37
2022-11-17T15:11:55.474Z,9.47
2022-11-17T15:14:24.325Z,9.27
2022-11-17T15:16:52.654Z,10.77
2022-11-17T15:19:20.965Z,8.97
2022-11-17T15:21:49.207Z,10.60
2022-11-17T15:24:18.053Z,10.57
2022-11-17T15:26:46.403Z,10.33
2022-11-17T15:29:16.573Z,10.43
2022-11-17T15:31:45.068Z,10.53
2022-11-17T15:34:19.754Z,11.30
2022-11-17T15:36:48.869Z,11.13
2022-11-17T15:39:18.084Z,11.30
2022-11-17T15:41:47.092Z,10.97
2022-11-17T15:44:18.971Z,10.43
2022-11-17T15:46:48.090Z,10.93
2022-11-17T15:49:16.853Z,10.23
2022-11-17T15:51:45.419Z,9.97
2022-11-17T15:54:20.030Z,12.40
2022-11-17T15:56:49.069Z,11.60
2022-11-17T15:59:19.396Z,11.10
2022-11-17T16:01:47.953Z,11.77
2022-11-17T16:04:16.834Z,12.77
2022-11-17T16:06:46.860Z,12.83
2022-11-17T16:09:16.012Z,13.87
2022-11-17T16:11:45.106Z,12.13
2022-11-17T16:14:14.910Z,14.40
2022-11-17T16:16:46.849Z,13.60
2022-11-17T16:19:15.498Z,13.50
2022-11-17T16:21:44.654Z,12.63
2022-11-17T16:24:13.114Z,15.07
2022-11-17T16:26:41.398Z,15.80
2022-11-17T16:29:10.019Z,13.97
2022-11-17T16:31:38.730Z,12.63
2022-11-17T16:34:11.877Z,13.97
2022-11-17T16:36:41.853Z,15.30
2022-11-17T16:39:12.116Z,14.87
2022-11-17T16:41:42.030Z,13.70
2022-11-17T16:44:12.233Z,14.40
2022-11-17T16:46:42.861Z,15.87
2022-11-17T16:49:18.056Z,15.60
2022-11-17T16:51:49.052Z,14.33
2022-11-17T16:54:18.218Z,13.60
2022-11-17T16:56:47.010Z,13.70
2022-11-17T16:59:16.668Z,15.20
2022-11-17T17:01:46.151Z,14.80
2022-11-17T17:04:17.559Z,14.20
2022-11-17T17:06:46.702Z,16.30
2022-11-17T17:09:16.418Z,16.07
2022-11-17T17:11:46.825Z,16.27
2022-11-17T17:14:16.379Z,18.33
2022-11-17T17:16:45.332Z,16.67
2022-11-17T17:19:17.546Z,19.40
2022-11-17T17:21:46.842Z,17.70
2022-11-17T17:24:16.111Z,16.93
2022-11-17T17:26:45.121Z,16.87
2022-11-17T17:29:14.230Z,16.77
2022-11-17T17:31:45.093Z,16.27
2022-11-17T17:34:14.127Z,16.57
2022-11-17T17:36:44.314Z,16.20
2022-11-17T17:39:17.150Z,16.47
2022-11-17T17:41:46.902Z,15.43
2022-11-17T17:44:23.391Z,16.40
2022-11-17T17:46:52.838Z,16.23
2022-11-17T17:49:22.197Z,17.93
2022-11-17T17:51:53.153Z,16.40
2022-11-17T17:54:24.483Z,17.50
2022-11-17T17:56:53.961Z,16.97
2022-11-17T17:59:23.230Z,18.70
2022-11-17T18:01:53.462Z,18.57
2022-11-17T18:04:23.028Z,18.03
2022-11-17T18:06:56.163Z,19.87
2022-11-17T18:09:27.135Z,18.57
2022-11-17T18:11:56.787Z,19.47
2022-11-17T18:14:39.387Z,20.03
2022-11-17T18:17:10.315Z,20.30
2022-11-17T18:19:40.138Z,18.70
2022-11-17T18:22:13.794Z,17.03
2022-11-17T18:24:43.011Z,19.47
2022-11-17T18:27:12.371Z,20.07
2022-11-17T18:29:41.658Z,21.27
2022-11-17T18:32:11.300Z,19.80
2022-11-17T18:34:42.473Z,19.50
2022-11-17T18:37:16.959Z,19.60
2022-11-17T18:39:48.087Z,20.30
2022-11-17T18:42:18.833Z,19.37
2022-11-17T18:44:48.711Z,19.33
2022-11-17T18:47:21.247Z,20.03
2022-11-17T18:49:51.812Z,21.30
2022-11-17T18:52:30.100Z,20.70
2022-11-17T18:55:01.775Z,19.30
2022-11-17T18:57:32.124Z,19.87
2022-11-17T19:00:04.606Z,20.13
2022-11-17T19:02:34.017Z,19.73
2022-11-17T19:05:05.753Z,20.53
2022-11-17T19:07:37.178Z,20.27
2022-11-17T19:10:09.042Z,21.30
2022-11-17T19:12:39.998Z,22.63
2022-11-17T19:15:10.156Z,21.10
2022-11-17T19:17:47.330Z,19.50
2022-11-17T19:20:19.716Z,19.50
2022-11-17T19:22:52.865Z,18.13
2022-11-17T19:25:24.860Z,20.50
2022-11-17T19:27:54.940Z,18.80
2022-11-17T19:30:27.047Z,19.03
2022-11-17T19:32:58.944Z,20.23
2022-11-17T19:35:29.136Z,19.13
2022-11-17T19:38:00.526Z,21.70
2022-11-17T19:40:30.503Z,19.83
2022-11-17T19:43:02.862Z,19.87
2022-11-17T19:45:33.551Z,21.80
2022-11-17T19:48:04.019Z,20.77
2022-11-17T19:50:38.024Z,20.93
2022-11-17T19:53:08.455Z,18.80
2022-11-17T19:55:39.464Z,18.97
2022-11-17T19:58:09.518Z,21.37
2022-11-17T20:00:40.079Z,22.30
2022-11-17T20:03:11.728Z,19.93
2022-11-17T20:05:41.937Z,21.07
2022-11-17T20:08:13.325Z,21.10
2022-11-17T20:10:44.532Z,19.17
2022-11-17T20:13:14.714Z,19.17
2022-11-17T20:15:48.349Z,18.10
2022-11-17T20:18:18.319Z,20.60
2022-11-17T20:20:50.290Z,18.27
2022-11-17T20:23:21.277Z,17.13
2022-11-17T20:25:51.880Z,17.37
2022-11-17T20:28:21.930Z,17.33
2022-11-17T20:30:51.765Z,17.70
2022-11-17T20:33:21.985Z,18.67
2022-11-17T20:35:51.661Z,20.00
2022-11-17T20:38:24.364Z,19.33
2022-11-17T20:40:58.550Z,22.40
2022-11-17T20:43:28.787Z,23.77
2022-11-17T20:45:59.671Z,20.03
2022-11-17T20:48:32.066Z,22.87
2022-11-17T20:51:02.901Z,21.83
2022-11-17T20:53:34.600Z,21.60
2022-11-17T20:56:06.420Z,20.17
2022-11-17T20:58:36.563Z,20.40
2022-11-17T21:01:10.459Z,18.70
2022-11-17T21:03:40.481Z,19.93
2022-11-17T21:06:11.035Z,20.03
2022-11-17T21:08:43.744Z,19.00
2022-11-17T21:11:35.272Z,19.23
2022-11-17T21:14:05.090Z,19.10
2022-11-17T21:16:34.690Z,20.10
2022-11-17T21:19:03.452Z,20.50
2022-11-17T21:21:32.571Z,20.93
2022-11-17T21:24:02.354Z,20.00
2022-11-17T21:26:30.990Z,18.67
2022-11-17T21:29:06.007Z,18.70
2022-11-17T21:31:35.495Z,19.83
2022-11-17T21:34:06.200Z,19.63
2022-11-17T21:36:36.224Z,19.20
2022-11-17T21:39:06.211Z,19.30
2022-11-17T21:41:36.270Z,19.73
2022-11-17T21:44:05.053Z,17.77
2022-11-17T21:46:34.823Z,17.77
2022-11-17T21:49:03.369Z,19.43
2022-11-17T21:51:33.468Z,18.40
2022-11-17T21:54:03.397Z,17.77
2022-11-17T21:56:33.161Z,19.03
2022-11-17T21:59:02.683Z,17.67
2022-11-17T22:01:31.980Z,18.43
2022-11-17T22:04:00.357Z,21.53
2022-11-17T22:06:28.793Z,19.43
2022-11-17T22:08:57.773Z,18.50
2022-11-17T22:11:37.039Z,19.30
2022-11-17T22:14:09.672Z,18.33
2022-11-17T22:16:39.476Z,18.17
2022-11-17T22:19:08.414Z,17.73
2022-11-17T22:21:37.502Z,19.03
2022-11-17T22:24:07.089Z,19.03
2022-11-17T22:26:38.186Z,18.80
2022-11-17T22:29:09.144Z,17.33
2022-11-17T22:31:37.329Z,17.50
2022-11-17T22:34:05.893Z,16.90
2022-11-17T22:36:34.162Z,17.73
2022-11-17T22:39:02.571Z,16.57
2022-11-17T22:41:31.329Z,16.33
2022-11-17T22:44:00.498Z,15.90
2022-11-17T22:46:30.448Z,15.47
2022-11-17T22:48:58.931Z,18.00
2022-11-17T22:51:44.783Z,15.80
2022-11-17T22:54:13.204Z,17.27
2022-11-17T22:56:41.410Z,17.70
2022-11-17T22:59:09.769Z,17.80
2022-11-17T23:01:39.620Z,16.80
2022-11-17T23:04:07.955Z,16.83
2022-11-17T23:06:36.183Z,17.30
2022-11-17T23:09:04.476Z,17.10
2022-11-17T23:11:37.517Z,15.80
2022-11-17T23:14:06.533Z,18.57
2022-11-17T23:16:34.807Z,20.50
2022-11-17T23:19:04.774Z,17.47
2022-11-17T23:21:33.164Z,17.33
2022-11-17T23:24:01.369Z,18.20
2022-11-17T23:26:29.861Z,16.30
2022-11-17T23:28:58.134Z,17.10
2022-11-17T23:31:27.952Z,16.70
2022-11-17T23:33:56.302Z,16.77
2022-11-17T23:36:26.278Z,15.53
2022-11-17T23:38:57.647Z,16.87
2022-11-17T23:41:26.404Z,18.80
2022-11-17T23:43:55.531Z,16.43
2022-11-17T23:46:25.571Z,17.63
2022-11-17T23:48:54.226Z,16.77
2022-11-17T23:51:23.708Z,16.43
2022-11-17T23:53:53.552Z,17.40
2022-11-17T23:56:22.372Z,17.13
2022-11-17T23:58:50.849Z,18.57
